CYLW/YLW METAR and TAF weather

Enter ICAO airport designator
Station Type Date Time Source
CYLW METAR 2021/01/17 19:00 UTC NOAA

CYLW 171900Z AUTO 05003KT 9SM CLR M02/M03 A3028 RMK SLP276


Station Type Date Time Source
CYLW Decoded METAR 2021/01/17 19:00 UTC NOAA

Kelowna Airport, Canada (CYLW) 49-58N 119-23W 430M
Jan 17, 2021 - 02:00 PM EST / 2021.01.17 1900 UTC
Wind: from the NE (050 degrees) at 3 MPH (3 KT):0
Visibility: 9 mile(s):0
Sky conditions: clear
Temperature: 28 F (-2 C)
Dew Point: 26 F (-3 C)
Relative Humidity: 92%
Pressure (altimeter): 30.28 in. Hg (1025 hPa)
ob: CYLW 171900Z AUTO 05003KT 9SM CLR M02/M03 A3028 RMK SLP276
cycle: 19

Station Type Date Time Source
CYLW TAF 2021/01/17 19:42 UTC NOAA

TAF CYLW 171838Z 1719/1807 VRB03KT P6SM FEW120
FM172200 VRB03KT P6SM SCT060
TEMPO 1722/1802 BKN060
FM180200 VRB03KT P6SM SCT040 BKN060
TEMPO 1802/1807 6SM -SHSN BKN040 OVC060
RMK FCST BASED ON AUTO OBS. NXT FCST BY 180100Z

Example: see airport list